sensor_id;sensor_type;location;lat;lon;timestamp;P1;durP1;ratioP1;P2;durP2;ratioP2
68579;SDS011;55555;52.136;5.424;2022-09-09T00:01:42;4.20;;;1.70;;
68579;SDS011;55555;52.136;5.424;2022-09-09T00:04:32;5.20;;;1.90;;
68579;SDS011;55555;52.136;5.424;2022-09-09T00:07:15;7.75;;;2.22;;
68579;SDS011;55555;52.136;5.424;2022-09-09T00:15:52;5.95;;;1.90;;
68579;SDS011;55555;52.136;5.424;2022-09-09T00:21:47;5.78;;;2.20;;
68579;SDS011;55555;52.136;5.424;2022-09-09T00:27:31;6.82;;;2.13;;
68579;SDS011;55555;52.136;5.424;2022-09-09T00:32:53;6.20;;;2.20;;
68579;SDS011;55555;52.136;5.424;2022-09-09T00:35:29;7.43;;;2.53;;
68579;SDS011;55555;52.136;5.424;2022-09-09T00:38:18;8.45;;;1.98;;
68579;SDS011;55555;52.136;5.424;2022-09-09T00:50:05;6.05;;;2.95;;
68579;SDS011;55555;52.136;5.424;2022-09-09T01:01:30;11.50;;;3.83;;
68579;SDS011;55555;52.136;5.424;2022-09-09T01:03:57;11.70;;;4.20;;
68579;SDS011;55555;52.136;5.424;2022-09-09T01:06:35;8.30;;;3.63;;
68579;SDS011;55555;52.136;5.424;2022-09-09T01:11:59;7.22;;;3.13;;
68579;SDS011;55555;52.136;5.424;2022-09-09T01:15:04;8.57;;;3.50;;
68579;SDS011;55555;52.136;5.424;2022-09-09T01:17:46;10.88;;;4.25;;
68579;SDS011;55555;52.136;5.424;2022-09-09T01:28:17;10.90;;;3.60;;
68579;SDS011;55555;52.136;5.424;2022-09-09T01:30:51;11.23;;;4.10;;
68579;SDS011;55555;52.136;5.424;2022-09-09T01:33:18;10.50;;;3.90;;
68579;SDS011;55555;52.136;5.424;2022-09-09T01:35:50;9.07;;;4.15;;
68579;SDS011;55555;52.136;5.424;2022-09-09T01:38:20;10.20;;;4.10;;
68579;SDS011;55555;52.136;5.424;2022-09-09T01:40:49;8.93;;;4.20;;
68579;SDS011;55555;52.136;5.424;2022-09-09T01:43:19;9.48;;;4.22;;
68579;SDS011;55555;52.136;5.424;2022-09-09T01:45:48;9.02;;;4.40;;
68579;SDS011;55555;52.136;5.424;2022-09-09T01:48:19;11.65;;;4.47;;
68579;SDS011;55555;52.136;5.424;2022-09-09T01:50:48;11.57;;;4.68;;
68579;SDS011;55555;52.136;5.424;2022-09-09T01:53:16;10.30;;;4.73;;
68579;SDS011;55555;52.136;5.424;2022-09-09T01:58:57;10.90;;;5.45;;
68579;SDS011;55555;52.136;5.424;2022-09-09T02:02:11;10.65;;;4.68;;
68579;SDS011;55555;52.136;5.424;2022-09-09T02:04:54;13.65;;;5.18;;
68579;SDS011;55555;52.136;5.424;2022-09-09T02:07:44;12.40;;;5.60;;
68579;SDS011;55555;52.136;5.424;2022-09-09T02:10:16;11.80;;;5.53;;
68579;SDS011;55555;52.136;5.424;2022-09-09T02:12:53;12.98;;;6.18;;
68579;SDS011;55555;52.136;5.424;2022-09-09T02:18:14;10.40;;;5.53;;
68579;SDS011;55555;52.136;5.424;2022-09-09T02:20:45;11.17;;;5.13;;
68579;SDS011;55555;52.136;5.424;2022-09-09T02:23:13;10.82;;;6.00;;
68579;SDS011;55555;52.136;5.424;2022-09-09T02:25:41;11.75;;;5.45;;
68579;SDS011;55555;52.136;5.424;2022-09-09T02:28:10;11.25;;;4.78;;
68579;SDS011;55555;52.136;5.424;2022-09-09T02:30:40;13.35;;;6.15;;
68579;SDS011;55555;52.136;5.424;2022-09-09T02:33:10;10.03;;;5.40;;
68579;SDS011;55555;52.136;5.424;2022-09-09T02:35:39;13.75;;;5.78;;
68579;SDS011;55555;52.136;5.424;2022-09-09T02:38:10;13.38;;;5.75;;
68579;SDS011;55555;52.136;5.424;2022-09-09T02:40:40;10.90;;;5.35;;
68579;SDS011;55555;52.136;5.424;2022-09-09T02:43:06;11.32;;;5.75;;
68579;SDS011;55555;52.136;5.424;2022-09-09T02:45:42;16.60;;;5.70;;
68579;SDS011;55555;52.136;5.424;2022-09-09T02:51:21;11.90;;;5.57;;
68579;SDS011;55555;52.136;5.424;2022-09-09T02:56:51;12.38;;;6.18;;
68579;SDS011;55555;52.136;5.424;2022-09-09T02:59:20;15.13;;;6.40;;
68579;SDS011;55555;52.136;5.424;2022-09-09T03:01:50;13.50;;;6.55;;
68579;SDS011;55555;52.136;5.424;2022-09-09T03:04:17;10.82;;;6.22;;
68579;SDS011;55555;52.136;5.424;2022-09-09T03:06:44;13.52;;;6.85;;
68579;SDS011;55555;52.136;5.424;2022-09-09T03:09:11;16.95;;;6.65;;
68579;SDS011;55555;52.136;5.424;2022-09-09T03:11:38;13.80;;;6.67;;
68579;SDS011;55555;52.136;5.424;2022-09-09T03:14:05;11.13;;;6.53;;
68579;SDS011;55555;52.136;5.424;2022-09-09T03:16:32;15.13;;;7.30;;
68579;SDS011;55555;52.136;5.424;2022-09-09T03:19:00;14.65;;;7.75;;
68579;SDS011;55555;52.136;5.424;2022-09-09T03:21:27;14.07;;;7.40;;
68579;SDS011;55555;52.136;5.424;2022-09-09T03:23:54;15.97;;;7.17;;
68579;SDS011;55555;52.136;5.424;2022-09-09T03:26:23;12.35;;;6.40;;
68579;SDS011;55555;52.136;5.424;2022-09-09T03:28:50;14.48;;;7.78;;
68579;SDS011;55555;52.136;5.424;2022-09-09T03:31:17;13.15;;;8.35;;
68579;SDS011;55555;52.136;5.424;2022-09-09T03:33:45;15.50;;;7.60;;
68579;SDS011;55555;52.136;5.424;2022-09-09T03:36:13;16.20;;;7.70;;
68579;SDS011;55555;52.136;5.424;2022-09-09T03:38:41;13.77;;;7.25;;
68579;SDS011;55555;52.136;5.424;2022-09-09T03:41:08;14.52;;;7.88;;
68579;SDS011;55555;52.136;5.424;2022-09-09T03:43:35;13.73;;;7.93;;
68579;SDS011;55555;52.136;5.424;2022-09-09T03:46:03;14.07;;;7.40;;
68579;SDS011;55555;52.136;5.424;2022-09-09T03:48:30;14.70;;;7.67;;
68579;SDS011;55555;52.136;5.424;2022-09-09T03:50:57;15.73;;;8.02;;
68579;SDS011;55555;52.136;5.424;2022-09-09T03:53:27;12.85;;;7.70;;
68579;SDS011;55555;52.136;5.424;2022-09-09T03:55:55;12.27;;;7.85;;
68579;SDS011;55555;52.136;5.424;2022-09-09T03:58:25;22.17;;;8.52;;
68579;SDS011;55555;52.136;5.424;2022-09-09T04:00:54;13.90;;;7.47;;
68579;SDS011;55555;52.136;5.424;2022-09-09T04:03:23;15.57;;;8.05;;
68579;SDS011;55555;52.136;5.424;2022-09-09T04:05:54;20.30;;;8.32;;
68579;SDS011;55555;52.136;5.424;2022-09-09T04:08:22;16.27;;;7.88;;
68579;SDS011;55555;52.136;5.424;2022-09-09T04:10:53;13.30;;;6.95;;
68579;SDS011;55555;52.136;5.424;2022-09-09T04:13:23;16.73;;;7.70;;
68579;SDS011;55555;52.136;5.424;2022-09-09T04:15:51;20.77;;;8.43;;
68579;SDS011;55555;52.136;5.424;2022-09-09T04:18:24;15.35;;;7.57;;
68579;SDS011;55555;52.136;5.424;2022-09-09T04:20:52;16.10;;;7.90;;
68579;SDS011;55555;52.136;5.424;2022-09-09T04:23:21;14.98;;;7.97;;
68579;SDS011;55555;52.136;5.424;2022-09-09T04:25:51;22.07;;;8.30;;
68579;SDS011;55555;52.136;5.424;2022-09-09T04:28:20;16.48;;;8.18;;
68579;SDS011;55555;52.136;5.424;2022-09-09T04:30:50;15.63;;;7.68;;
68579;SDS011;55555;52.136;5.424;2022-09-09T04:33:18;19.33;;;8.73;;
68579;SDS011;55555;52.136;5.424;2022-09-09T04:35:46;13.82;;;7.40;;
68579;SDS011;55555;52.136;5.424;2022-09-09T04:38:16;14.50;;;6.97;;
68579;SDS011;55555;52.136;5.424;2022-09-09T04:40:45;17.85;;;8.52;;
68579;SDS011;55555;52.136;5.424;2022-09-09T04:43:13;16.30;;;7.95;;
68579;SDS011;55555;52.136;5.424;2022-09-09T04:45:44;14.85;;;7.72;;
68579;SDS011;55555;52.136;5.424;2022-09-09T04:48:15;19.45;;;8.52;;
68579;SDS011;55555;52.136;5.424;2022-09-09T04:50:41;14.73;;;7.43;;
68579;SDS011;55555;52.136;5.424;2022-09-09T04:53:09;18.73;;;7.97;;
68579;SDS011;55555;52.136;5.424;2022-09-09T04:55:36;15.18;;;6.65;;
68579;SDS011;55555;52.136;5.424;2022-09-09T04:58:04;12.82;;;6.60;;
68579;SDS011;55555;52.136;5.424;2022-09-09T05:00:33;14.27;;;7.38;;
68579;SDS011;55555;52.136;5.424;2022-09-09T05:03:02;16.53;;;6.87;;
68579;SDS011;55555;52.136;5.424;2022-09-09T05:05:32;14.13;;;6.43;;
68579;SDS011;55555;52.136;5.424;2022-09-09T05:08:10;21.67;;;6.88;;
68579;SDS011;55555;52.136;5.424;2022-09-09T05:10:38;11.65;;;5.80;;
68579;SDS011;55555;52.136;5.424;2022-09-09T05:13:05;14.75;;;6.15;;
68579;SDS011;55555;52.136;5.424;2022-09-09T05:15:32;15.30;;;6.60;;
68579;SDS011;55555;52.136;5.424;2022-09-09T05:18:00;15.25;;;6.90;;
68579;SDS011;55555;52.136;5.424;2022-09-09T05:20:28;16.42;;;6.55;;
68579;SDS011;55555;52.136;5.424;2022-09-09T05:22:55;10.38;;;5.53;;
68579;SDS011;55555;52.136;5.424;2022-09-09T05:25:23;13.68;;;6.18;;
68579;SDS011;55555;52.136;5.424;2022-09-09T05:27:54;10.73;;;5.80;;
68579;SDS011;55555;52.136;5.424;2022-09-09T05:30:21;14.80;;;6.63;;
68579;SDS011;55555;52.136;5.424;2022-09-09T05:32:52;17.02;;;5.97;;
68579;SDS011;55555;52.136;5.424;2022-09-09T05:35:22;15.95;;;6.28;;
68579;SDS011;55555;52.136;5.424;2022-09-09T05:37:49;13.48;;;5.90;;
68579;SDS011;55555;52.136;5.424;2022-09-09T05:40:16;19.50;;;6.70;;
68579;SDS011;55555;52.136;5.424;2022-09-09T05:42:43;14.27;;;6.10;;
68579;SDS011;55555;52.136;5.424;2022-09-09T05:45:10;14.75;;;6.15;;
68579;SDS011;55555;52.136;5.424;2022-09-09T05:47:37;16.75;;;6.30;;
68579;SDS011;55555;52.136;5.424;2022-09-09T05:50:04;15.75;;;6.65;;
68579;SDS011;55555;52.136;5.424;2022-09-09T05:52:31;14.17;;;6.60;;
68579;SDS011;55555;52.136;5.424;2022-09-09T05:54:59;16.40;;;6.72;;
68579;SDS011;55555;52.136;5.424;2022-09-09T05:57:25;15.68;;;5.72;;
68579;SDS011;55555;52.136;5.424;2022-09-09T05:59:52;16.23;;;6.90;;
68579;SDS011;55555;52.136;5.424;2022-09-09T06:02:19;15.15;;;6.18;;
68579;SDS011;55555;52.136;5.424;2022-09-09T06:04:46;17.40;;;5.93;;
68579;SDS011;55555;52.136;5.424;2022-09-09T06:07:13;13.50;;;6.72;;
68579;SDS011;55555;52.136;5.424;2022-09-09T06:09:40;15.93;;;6.82;;
68579;SDS011;55555;52.136;5.424;2022-09-09T06:12:07;12.18;;;6.35;;
68579;SDS011;55555;52.136;5.424;2022-09-09T06:14:35;14.88;;;6.50;;
68579;SDS011;55555;52.136;5.424;2022-09-09T06:17:02;14.67;;;6.57;;
68579;SDS011;55555;52.136;5.424;2022-09-09T06:19:29;14.23;;;6.78;;
68579;SDS011;55555;52.136;5.424;2022-09-09T06:21:57;14.88;;;6.57;;
68579;SDS011;55555;52.136;5.424;2022-09-09T06:24:24;12.90;;;6.38;;
68579;SDS011;55555;52.136;5.424;2022-09-09T06:26:51;16.73;;;6.55;;
68579;SDS011;55555;52.136;5.424;2022-09-09T06:29:19;13.67;;;6.47;;
68579;SDS011;55555;52.136;5.424;2022-09-09T06:31:46;20.35;;;6.70;;
68579;SDS011;55555;52.136;5.424;2022-09-09T06:34:13;14.63;;;6.43;;
68579;SDS011;55555;52.136;5.424;2022-09-09T06:36:41;15.93;;;7.93;;
68579;SDS011;55555;52.136;5.424;2022-09-09T06:39:08;16.38;;;6.38;;
68579;SDS011;55555;52.136;5.424;2022-09-09T06:41:40;13.67;;;5.50;;
68579;SDS011;55555;52.136;5.424;2022-09-09T06:44:08;14.82;;;5.03;;
68579;SDS011;55555;52.136;5.424;2022-09-09T06:46:37;15.57;;;5.65;;
68579;SDS011;55555;52.136;5.424;2022-09-09T06:49:05;16.58;;;4.43;;
68579;SDS011;55555;52.136;5.424;2022-09-09T06:51:34;13.57;;;4.68;;
68579;SDS011;55555;52.136;5.424;2022-09-09T06:54:09;16.73;;;4.70;;
68579;SDS011;55555;52.136;5.424;2022-09-09T06:56:38;16.35;;;5.10;;
68579;SDS011;55555;52.136;5.424;2022-09-09T06:59:08;18.70;;;5.68;;
68579;SDS011;55555;52.136;5.424;2022-09-09T07:01:37;13.90;;;4.30;;
68579;SDS011;55555;52.136;5.424;2022-09-09T07:04:21;16.00;;;4.47;;
68579;SDS011;55555;52.136;5.424;2022-09-09T07:06:48;12.57;;;4.67;;
68579;SDS011;55555;52.136;5.424;2022-09-09T07:09:15;19.02;;;4.05;;
68579;SDS011;55555;52.136;5.424;2022-09-09T07:11:43;14.50;;;4.25;;
68579;SDS011;55555;52.136;5.424;2022-09-09T07:14:13;14.55;;;3.90;;
68579;SDS011;55555;52.136;5.424;2022-09-09T07:16:42;10.90;;;3.83;;
68579;SDS011;55555;52.136;5.424;2022-09-09T07:19:10;11.47;;;4.03;;
68579;SDS011;55555;52.136;5.424;2022-09-09T07:21:40;14.18;;;4.18;;
68579;SDS011;55555;52.136;5.424;2022-09-09T07:24:07;13.45;;;3.75;;
68579;SDS011;55555;52.136;5.424;2022-09-09T07:26:36;14.13;;;3.53;;
68579;SDS011;55555;52.136;5.424;2022-09-09T07:29:05;14.00;;;3.80;;
68579;SDS011;55555;52.136;5.424;2022-09-09T07:31:34;13.50;;;3.70;;
68579;SDS011;55555;52.136;5.424;2022-09-09T07:34:05;15.05;;;4.30;;
68579;SDS011;55555;52.136;5.424;2022-09-09T07:36:33;11.52;;;3.80;;
68579;SDS011;55555;52.136;5.424;2022-09-09T07:39:08;15.20;;;3.92;;
68579;SDS011;55555;52.136;5.424;2022-09-09T07:41:45;14.10;;;3.97;;
68579;SDS011;55555;52.136;5.424;2022-09-09T07:44:14;14.07;;;3.87;;
68579;SDS011;55555;52.136;5.424;2022-09-09T07:46:48;9.13;;;3.55;;
68579;SDS011;55555;52.136;5.424;2022-09-09T07:49:15;14.18;;;3.83;;
68579;SDS011;55555;52.136;5.424;2022-09-09T07:51:51;12.98;;;3.50;;
68579;SDS011;55555;52.136;5.424;2022-09-09T07:54:18;13.60;;;4.07;;
68579;SDS011;55555;52.136;5.424;2022-09-09T07:56:46;19.27;;;4.00;;
68579;SDS011;55555;52.136;5.424;2022-09-09T07:59:13;14.63;;;3.33;;
68579;SDS011;55555;52.136;5.424;2022-09-09T08:01:42;19.73;;;3.90;;
68579;SDS011;55555;52.136;5.424;2022-09-09T08:04:13;15.15;;;3.67;;
68579;SDS011;55555;52.136;5.424;2022-09-09T08:06:47;12.82;;;3.15;;
68579;SDS011;55555;52.136;5.424;2022-09-09T08:09:19;14.00;;;3.67;;
68579;SDS011;55555;52.136;5.424;2022-09-09T08:11:47;18.13;;;3.72;;
68579;SDS011;55555;52.136;5.424;2022-09-09T08:14:14;14.77;;;3.70;;
68579;SDS011;55555;52.136;5.424;2022-09-09T08:16:42;10.80;;;2.85;;
68579;SDS011;55555;52.136;5.424;2022-09-09T08:19:12;14.18;;;4.20;;
68579;SDS011;55555;52.136;5.424;2022-09-09T08:21:41;11.47;;;3.10;;
68579;SDS011;55555;52.136;5.424;2022-09-09T08:24:10;14.05;;;3.38;;
68579;SDS011;55555;52.136;5.424;2022-09-09T08:26:40;12.02;;;3.30;;
68579;SDS011;55555;52.136;5.424;2022-09-09T08:29:11;14.68;;;3.40;;
68579;SDS011;55555;52.136;5.424;2022-09-09T08:31:40;10.82;;;2.83;;
68579;SDS011;55555;52.136;5.424;2022-09-09T08:34:11;15.43;;;3.47;;
68579;SDS011;55555;52.136;5.424;2022-09-09T08:36:39;13.85;;;3.70;;
68579;SDS011;55555;52.136;5.424;2022-09-09T08:39:09;9.70;;;3.00;;
68579;SDS011;55555;52.136;5.424;2022-09-09T08:51:11;16.65;;;3.65;;
68579;SDS011;55555;52.136;5.424;2022-09-09T08:53:44;10.32;;;2.90;;
68579;SDS011;55555;52.136;5.424;2022-09-09T08:56:16;9.40;;;3.03;;
68579;SDS011;55555;52.136;5.424;2022-09-09T08:58:49;10.73;;;2.85;;
68579;SDS011;55555;52.136;5.424;2022-09-09T09:06:57;10.45;;;2.80;;
68579;SDS011;55555;52.136;5.424;2022-09-09T09:13:20;11.27;;;2.92;;
68579;SDS011;55555;52.136;5.424;2022-09-09T09:19:14;10.32;;;2.78;;
68579;SDS011;55555;52.136;5.424;2022-09-09T09:21:52;12.77;;;3.13;;
68579;SDS011;55555;52.136;5.424;2022-09-09T09:27:21;14.57;;;2.75;;
68579;SDS011;55555;52.136;5.424;2022-09-09T09:33:06;14.93;;;3.00;;
68579;SDS011;55555;52.136;5.424;2022-09-09T09:35:49;10.07;;;2.70;;
68579;SDS011;55555;52.136;5.424;2022-09-09T09:38:20;10.52;;;2.95;;
68579;SDS011;55555;52.136;5.424;2022-09-09T09:41:10;11.98;;;3.05;;
68579;SDS011;55555;52.136;5.424;2022-09-09T09:43:37;9.60;;;2.90;;
68579;SDS011;55555;52.136;5.424;2022-09-09T09:46:22;11.65;;;3.08;;
68579;SDS011;55555;52.136;5.424;2022-09-09T09:48:58;14.35;;;3.42;;
68579;SDS011;55555;52.136;5.424;2022-09-09T09:51:34;12.00;;;3.05;;
68579;SDS011;55555;52.136;5.424;2022-09-09T09:54:21;10.13;;;2.90;;
68579;SDS011;55555;52.136;5.424;2022-09-09T09:56:55;12.53;;;2.90;;
68579;SDS011;55555;52.136;5.424;2022-09-09T10:02:15;7.63;;;2.38;;
68579;SDS011;55555;52.136;5.424;2022-09-09T10:05:08;12.68;;;2.97;;
68579;SDS011;55555;52.136;5.424;2022-09-09T10:07:41;11.32;;;2.83;;
68579;SDS011;55555;52.136;5.424;2022-09-09T10:10:24;11.43;;;2.77;;
68579;SDS011;55555;52.136;5.424;2022-09-09T10:13:20;16.30;;;2.97;;
68579;SDS011;55555;52.136;5.424;2022-09-09T10:15:53;11.50;;;2.40;;
68579;SDS011;55555;52.136;5.424;2022-09-09T10:19:05;12.20;;;2.47;;
68579;SDS011;55555;52.136;5.424;2022-09-09T10:21:48;9.68;;;2.47;;
68579;SDS011;55555;52.136;5.424;2022-09-09T10:25:24;15.30;;;3.00;;
68579;SDS011;55555;52.136;5.424;2022-09-09T10:27:40;9.82;;;2.85;;
68579;SDS011;55555;52.136;5.424;2022-09-09T10:30:51;9.77;;;2.50;;
68579;SDS011;55555;52.136;5.424;2022-09-09T10:36:46;10.10;;;2.95;;
68579;SDS011;55555;52.136;5.424;2022-09-09T10:50:48;13.13;;;3.22;;
68579;SDS011;55555;52.136;5.424;2022-09-09T10:53:35;9.47;;;3.37;;
68579;SDS011;55555;52.136;5.424;2022-09-09T10:56:11;11.10;;;3.55;;
68579;SDS011;55555;52.136;5.424;2022-09-09T10:59:29;13.45;;;3.80;;
68579;SDS011;55555;52.136;5.424;2022-09-09T11:01:57;12.60;;;4.00;;
68579;SDS011;55555;52.136;5.424;2022-09-09T11:04:53;11.27;;;3.47;;
68579;SDS011;55555;52.136;5.424;2022-09-09T11:08:04;11.43;;;4.30;;
68579;SDS011;55555;52.136;5.424;2022-09-09T11:13:42;15.05;;;4.18;;
68579;SDS011;55555;52.136;5.424;2022-09-09T11:16:25;9.65;;;3.80;;
68579;SDS011;55555;52.136;5.424;2022-09-09T11:21:55;8.50;;;3.13;;
68579;SDS011;55555;52.136;5.424;2022-09-09T11:24:27;9.73;;;3.80;;
68579;SDS011;55555;52.136;5.424;2022-09-09T11:27:14;11.02;;;3.53;;
68579;SDS011;55555;52.136;5.424;2022-09-09T11:33:18;13.82;;;3.58;;
68579;SDS011;55555;52.136;5.424;2022-09-09T11:38:52;10.05;;;2.75;;
68579;SDS011;55555;52.136;5.424;2022-09-09T11:41:49;11.90;;;3.17;;
68579;SDS011;55555;52.136;5.424;2022-09-09T11:44:18;8.82;;;2.75;;
68579;SDS011;55555;52.136;5.424;2022-09-09T11:46:53;7.47;;;2.80;;
68579;SDS011;55555;52.136;5.424;2022-09-09T11:55:20;9.25;;;2.80;;
68579;SDS011;55555;52.136;5.424;2022-09-09T12:00:30;11.98;;;3.00;;
68579;SDS011;55555;52.136;5.424;2022-09-09T12:03:03;9.93;;;3.20;;
68579;SDS011;55555;52.136;5.424;2022-09-09T12:05:38;9.43;;;3.28;;
68579;SDS011;55555;52.136;5.424;2022-09-09T12:08:10;11.35;;;2.88;;
68579;SDS011;55555;52.136;5.424;2022-09-09T12:10:52;13.90;;;3.60;;
68579;SDS011;55555;52.136;5.424;2022-09-09T12:13:23;9.88;;;3.47;;
68579;SDS011;55555;52.136;5.424;2022-09-09T12:15:56;11.00;;;3.33;;
68579;SDS011;55555;52.136;5.424;2022-09-09T12:18:32;9.27;;;3.45;;
68579;SDS011;55555;52.136;5.424;2022-09-09T12:21:28;11.93;;;3.70;;
68579;SDS011;55555;52.136;5.424;2022-09-09T12:24:27;9.25;;;3.20;;
68579;SDS011;55555;52.136;5.424;2022-09-09T12:27:16;9.60;;;3.00;;
68579;SDS011;55555;52.136;5.424;2022-09-09T12:30:00;8.97;;;3.10;;
68579;SDS011;55555;52.136;5.424;2022-09-09T12:32:35;10.07;;;3.90;;
68579;SDS011;55555;52.136;5.424;2022-09-09T12:35:09;11.65;;;3.50;;
68579;SDS011;55555;52.136;5.424;2022-09-09T12:37:44;13.32;;;4.30;;
68579;SDS011;55555;52.136;5.424;2022-09-09T12:40:27;13.80;;;4.40;;
68579;SDS011;55555;52.136;5.424;2022-09-09T12:43:23;10.97;;;3.97;;
68579;SDS011;55555;52.136;5.424;2022-09-09T12:45:51;12.80;;;4.80;;
68579;SDS011;55555;52.136;5.424;2022-09-09T12:48:27;11.18;;;4.07;;
68579;SDS011;55555;52.136;5.424;2022-09-09T12:53:57;12.70;;;4.10;;
68579;SDS011;55555;52.136;5.424;2022-09-09T12:56:27;11.80;;;4.07;;
68579;SDS011;55555;52.136;5.424;2022-09-09T12:58:57;12.45;;;3.78;;
68579;SDS011;55555;52.136;5.424;2022-09-09T13:01:26;12.02;;;3.95;;
68579;SDS011;55555;52.136;5.424;2022-09-09T13:03:59;11.98;;;3.63;;
68579;SDS011;55555;52.136;5.424;2022-09-09T13:06:28;11.23;;;3.80;;
68579;SDS011;55555;52.136;5.424;2022-09-09T13:08:58;7.67;;;3.23;;
68579;SDS011;55555;52.136;5.424;2022-09-09T13:11:34;10.13;;;3.30;;
68579;SDS011;55555;52.136;5.424;2022-09-09T13:14:06;9.45;;;3.63;;
68579;SDS011;55555;52.136;5.424;2022-09-09T13:16:38;10.73;;;3.63;;
68579;SDS011;55555;52.136;5.424;2022-09-09T13:19:09;11.07;;;2.88;;
68579;SDS011;55555;52.136;5.424;2022-09-09T13:21:41;6.37;;;2.50;;
68579;SDS011;55555;52.136;5.424;2022-09-09T13:27:00;8.88;;;2.80;;
68579;SDS011;55555;52.136;5.424;2022-09-09T13:29:30;8.85;;;2.88;;
68579;SDS011;55555;52.136;5.424;2022-09-09T13:32:15;10.40;;;3.42;;
68579;SDS011;55555;52.136;5.424;2022-09-09T13:37:50;9.73;;;3.08;;
68579;SDS011;55555;52.136;5.424;2022-09-09T13:40:18;7.78;;;3.17;;
68579;SDS011;55555;52.136;5.424;2022-09-09T13:42:53;12.30;;;3.75;;
68579;SDS011;55555;52.136;5.424;2022-09-09T13:45:23;9.20;;;3.40;;
68579;SDS011;55555;52.136;5.424;2022-09-09T13:47:55;10.00;;;3.53;;
68579;SDS011;55555;52.136;5.424;2022-09-09T13:50:26;9.75;;;3.47;;
68579;SDS011;55555;52.136;5.424;2022-09-09T13:52:57;11.57;;;3.25;;
68579;SDS011;55555;52.136;5.424;2022-09-09T13:55:28;9.13;;;3.25;;
68579;SDS011;55555;52.136;5.424;2022-09-09T13:58:02;7.97;;;3.10;;
68579;SDS011;55555;52.136;5.424;2022-09-09T14:00:32;11.00;;;3.73;;
68579;SDS011;55555;52.136;5.424;2022-09-09T14:03:00;10.10;;;3.45;;
68579;SDS011;55555;52.136;5.424;2022-09-09T14:05:28;10.10;;;3.22;;
68579;SDS011;55555;52.136;5.424;2022-09-09T14:07:59;9.05;;;3.10;;
68579;SDS011;55555;52.136;5.424;2022-09-09T14:10:26;10.70;;;3.28;;
68579;SDS011;55555;52.136;5.424;2022-09-09T14:12:53;10.40;;;3.30;;
68579;SDS011;55555;52.136;5.424;2022-09-09T14:15:20;12.02;;;3.50;;
68579;SDS011;55555;52.136;5.424;2022-09-09T14:17:48;11.02;;;3.25;;
68579;SDS011;55555;52.136;5.424;2022-09-09T14:20:15;9.18;;;2.75;;
68579;SDS011;55555;52.136;5.424;2022-09-09T14:22:43;11.57;;;3.25;;
68579;SDS011;55555;52.136;5.424;2022-09-09T14:25:10;8.97;;;3.57;;
68579;SDS011;55555;52.136;5.424;2022-09-09T14:27:39;8.75;;;3.55;;
68579;SDS011;55555;52.136;5.424;2022-09-09T14:30:08;9.68;;;3.67;;
68579;SDS011;55555;52.136;5.424;2022-09-09T14:32:36;11.70;;;3.30;;
68579;SDS011;55555;52.136;5.424;2022-09-09T14:35:03;13.10;;;3.40;;
68579;SDS011;55555;52.136;5.424;2022-09-09T14:37:30;11.50;;;4.13;;
68579;SDS011;55555;52.136;5.424;2022-09-09T14:39:57;10.95;;;4.00;;
68579;SDS011;55555;52.136;5.424;2022-09-09T14:42:24;12.95;;;4.35;;
68579;SDS011;55555;52.136;5.424;2022-09-09T14:44:52;24.40;;;4.97;;
68579;SDS011;55555;52.136;5.424;2022-09-09T14:47:19;12.55;;;4.10;;
68579;SDS011;55555;52.136;5.424;2022-09-09T14:49:46;17.40;;;5.40;;
68579;SDS011;55555;52.136;5.424;2022-09-09T14:52:15;11.55;;;4.25;;
68579;SDS011;55555;52.136;5.424;2022-09-09T14:54:42;17.80;;;5.60;;
68579;SDS011;55555;52.136;5.424;2022-09-09T14:57:09;13.38;;;6.10;;
68579;SDS011;55555;52.136;5.424;2022-09-09T14:59:36;11.07;;;4.60;;
68579;SDS011;55555;52.136;5.424;2022-09-09T15:02:03;15.80;;;5.60;;
68579;SDS011;55555;52.136;5.424;2022-09-09T15:04:30;16.80;;;5.35;;
68579;SDS011;55555;52.136;5.424;2022-09-09T15:06:58;13.13;;;5.15;;
68579;SDS011;55555;52.136;5.424;2022-09-09T15:09:25;16.00;;;4.93;;
68579;SDS011;55555;52.136;5.424;2022-09-09T15:11:52;10.68;;;5.13;;
68579;SDS011;55555;52.136;5.424;2022-09-09T15:14:19;13.20;;;5.93;;
68579;SDS011;55555;52.136;5.424;2022-09-09T15:16:50;14.90;;;5.57;;
68579;SDS011;55555;52.136;5.424;2022-09-09T15:19:18;8.95;;;4.32;;
68579;SDS011;55555;52.136;5.424;2022-09-09T15:21:44;12.88;;;4.22;;
68579;SDS011;55555;52.136;5.424;2022-09-09T15:24:11;9.73;;;4.07;;
68579;SDS011;55555;52.136;5.424;2022-09-09T15:26:39;11.13;;;3.73;;
68579;SDS011;55555;52.136;5.424;2022-09-09T15:29:06;10.48;;;3.25;;
68579;SDS011;55555;52.136;5.424;2022-09-09T15:31:34;7.55;;;2.40;;
68579;SDS011;55555;52.136;5.424;2022-09-09T15:34:03;9.30;;;3.15;;
68579;SDS011;55555;52.136;5.424;2022-09-09T15:36:33;6.43;;;2.78;;
68579;SDS011;55555;52.136;5.424;2022-09-09T15:39:04;9.23;;;2.67;;
68579;SDS011;55555;52.136;5.424;2022-09-09T15:41:35;11.07;;;2.80;;
68579;SDS011;55555;52.136;5.424;2022-09-09T15:44:02;7.03;;;2.83;;
68579;SDS011;55555;52.136;5.424;2022-09-09T15:46:30;5.65;;;2.70;;
68579;SDS011;55555;52.136;5.424;2022-09-09T15:49:04;6.55;;;2.50;;
68579;SDS011;55555;52.136;5.424;2022-09-09T15:51:38;7.03;;;2.90;;
68579;SDS011;55555;52.136;5.424;2022-09-09T15:54:17;7.20;;;2.80;;
68579;SDS011;55555;52.136;5.424;2022-09-09T15:56:47;6.88;;;2.75;;
68579;SDS011;55555;52.136;5.424;2022-09-09T15:59:22;7.63;;;2.40;;
68579;SDS011;55555;52.136;5.424;2022-09-09T16:01:51;7.03;;;2.78;;
68579;SDS011;55555;52.136;5.424;2022-09-09T16:04:18;7.13;;;2.30;;
68579;SDS011;55555;52.136;5.424;2022-09-09T16:06:56;9.55;;;2.70;;
68579;SDS011;55555;52.136;5.424;2022-09-09T16:09:29;9.32;;;3.22;;
68579;SDS011;55555;52.136;5.424;2022-09-09T16:11:57;9.15;;;2.90;;
68579;SDS011;55555;52.136;5.424;2022-09-09T16:14:26;7.82;;;2.72;;
68579;SDS011;55555;52.136;5.424;2022-09-09T16:16:54;7.83;;;1.97;;
68579;SDS011;55555;52.136;5.424;2022-09-09T16:19:23;6.78;;;2.60;;
68579;SDS011;55555;52.136;5.424;2022-09-09T16:21:50;7.03;;;2.80;;
68579;SDS011;55555;52.136;5.424;2022-09-09T16:24:18;7.40;;;2.55;;
68579;SDS011;55555;52.136;5.424;2022-09-09T16:26:47;7.18;;;2.60;;
68579;SDS011;55555;52.136;5.424;2022-09-09T16:29:17;10.80;;;2.50;;
68579;SDS011;55555;52.136;5.424;2022-09-09T16:31:46;7.90;;;2.40;;
68579;SDS011;55555;52.136;5.424;2022-09-09T16:34:14;7.10;;;2.40;;
68579;SDS011;55555;52.136;5.424;2022-09-09T16:36:43;10.10;;;2.65;;
68579;SDS011;55555;52.136;5.424;2022-09-09T16:39:13;6.35;;;2.20;;
68579;SDS011;55555;52.136;5.424;2022-09-09T16:41:44;7.73;;;2.50;;
68579;SDS011;55555;52.136;5.424;2022-09-09T16:44:14;9.30;;;2.90;;
68579;SDS011;55555;52.136;5.424;2022-09-09T16:46:44;7.20;;;2.50;;
68579;SDS011;55555;52.136;5.424;2022-09-09T16:49:14;6.78;;;2.60;;
68579;SDS011;55555;52.136;5.424;2022-09-09T16:51:43;7.32;;;2.72;;
68579;SDS011;55555;52.136;5.424;2022-09-09T16:54:16;7.60;;;2.97;;
68579;SDS011;55555;52.136;5.424;2022-09-09T16:56:44;8.63;;;2.65;;
68579;SDS011;55555;52.136;5.424;2022-09-09T16:59:14;9.63;;;2.40;;
68579;SDS011;55555;52.136;5.424;2022-09-09T17:01:44;10.05;;;2.80;;
68579;SDS011;55555;52.136;5.424;2022-09-09T17:04:15;8.63;;;2.88;;
68579;SDS011;55555;52.136;5.424;2022-09-09T17:06:47;9.40;;;3.20;;
68579;SDS011;55555;52.136;5.424;2022-09-09T17:09:16;7.95;;;2.60;;
68579;SDS011;55555;52.136;5.424;2022-09-09T17:11:45;7.55;;;2.75;;
68579;SDS011;55555;52.136;5.424;2022-09-09T17:14:15;7.85;;;2.72;;
68579;SDS011;55555;52.136;5.424;2022-09-09T17:16:44;7.13;;;2.50;;
68579;SDS011;55555;52.136;5.424;2022-09-09T17:19:11;9.03;;;3.30;;